Time;durP1;ratioP1;P1;durP2;ratioP2;P2;SDS_P1;SDS_P2;PMS_P1;PMS_P2;Temp;Humidity;BMP_temperature;BMP_pressure;BME280_temperature;BME280_humidity;BME280_pressure;Samples;Min_cycle;Max_cycle;Signal;HPM_P1;HPM_P2
2022/12/23 11:15:47;;;;;;;18.93;12.10;;;;;;;8.75;100.00;100224.03;5294171;27;20458;-77
2022/12/23 11:18:20;;;;;;;22.70;11.80;;;;;;;8.66;100.00;100218.47;5294259;28;20050;-79
2022/12/23 11:21:03;;;;;;;18.33;12.03;;;;;;;8.65;100.00;100222.03;5287488;28;20116;-75
2022/12/23 11:23:35;;;;;;;22.50;13.27;;;;;;;8.69;100.00;100226.09;5288453;28;20036;-74
2022/12/23 11:26:10;;;;;;;20.37;11.07;;;;;;;8.71;100.00;100221.63;5285568;28;20039;-74
2022/12/23 11:28:50;;;;;;;20.90;10.77;;;;;;;8.70;100.00;100217.34;5289211;28;20162;-76
2022/12/23 11:31:27;;;;;;;18.23;10.47;;;;;;;8.79;100.00;100208.09;5292500;28;20394;-78
2022/12/23 11:34:01;;;;;;;21.63;10.73;;;;;;;8.78;100.00;100195.97;5285566;27;20032;-76
2022/12/23 11:36:33;;;;;;;22.30;10.23;;;;;;;8.80;100.00;100188.88;5291731;28;20078;-77
2022/12/23 11:39:22;;;;;;;16.40;9.53;;;;;;;8.88;100.00;100198.84;5280541;28;20056;-77
2022/12/23 11:42:22;;;;;;;21.03;10.97;;;;;;;8.88;100.00;100187.56;5286795;28;20024;-72
2022/12/23 11:44:57;;;;;;;15.43;8.77;;;;;;;8.64;100.00;100155.06;5276959;28;20436;-79
2022/12/23 11:47:39;;;;;;;15.20;8.87;;;;;;;8.87;100.00;100167.59;5285050;28;20064;-76
2022/12/23 11:50:33;;;;;;;23.43;9.77;;;;;;;8.75;100.00;100161.38;5288270;28;20031;-78
2022/12/23 11:53:41;;;;;;;19.50;9.97;;;;;;;8.71;100.00;100163.34;5283734;28;20017;-80
2022/12/23 11:56:13;;;;;;;18.97;10.33;;;;;;;8.67;100.00;100162.72;5274770;28;20127;-81
2022/12/23 11:58:48;;;;;;;14.63;9.00;;;;;;;8.53;100.00;100145.28;5281522;28;20044;-79
2022/12/23 12:01:24;;;;;;;17.27;10.50;;;;;;;8.58;100.00;100138.03;5287197;28;20495;-79
2022/12/23 12:04:16;;;;;;;17.60;9.03;;;;;;;8.53;100.00;100123.56;5289247;28;20021;-78
2022/12/23 12:06:49;;;;;;;25.90;9.77;;;;;;;8.51;100.00;100110.63;5292841;28;20016;-78
2022/12/23 12:09:22;;;;;;;19.90;10.00;;;;;;;8.50;100.00;100098.47;5292303;28;20425;-75
2022/12/23 12:12:02;;;;;;;20.17;10.10;;;;;;;8.51;100.00;100081.91;5291965;28;20111;-77
2022/12/23 12:14:42;;;;;;;20.80;11.90;;;;;;;8.54;100.00;100067.81;5292590;28;20109;-77
2022/12/23 12:17:25;;;;;;;20.93;11.33;;;;;;;8.53;100.00;100056.56;5293020;28;20490;-77
2022/12/23 12:20:31;;;;;;;20.70;11.30;;;;;;;8.62;100.00;100070.81;5291898;28;20020;-78
2022/12/23 12:23:12;;;;;;;19.37;10.10;;;;;;;8.56;100.00;100056.38;5282229;28;20060;-78
2022/12/23 12:25:49;;;;;;;24.53;11.27;;;;;;;8.63;100.00;100054.22;5286792;28;20538;-77
2022/12/23 12:28:26;;;;;;;26.53;11.47;;;;;;;8.68;100.00;100062.59;5277130;28;20032;-75
2022/12/23 12:31:10;;;;;;;26.30;10.77;;;;;;;8.60;100.00;100067.47;5277931;28;20085;-72
2022/12/23 12:33:52;;;;;;;16.90;9.47;;;;;;;8.70;100.00;100063.31;5279820;28;20029;-78
2022/12/23 12:36:39;;;;;;;17.67;10.97;;;;;;;8.64;100.00;100050.66;5278076;28;20105;-73
2022/12/23 12:39:27;;;;;;;17.37;9.37;;;;;;;8.59;100.00;100024.00;5264013;28;20059;-77
2022/12/23 12:42:04;;;;;;;23.87;10.23;;;;;;;8.59;100.00;100016.19;5276242;28;20028;-77
2022/12/23 12:45:01;;;;;;;21.03;10.63;;;;;;;8.53;100.00;100019.16;5278333;28;20035;-77
2022/12/23 12:47:39;;;;;;;18.83;10.00;;;;;;;8.61;100.00;100006.47;5269413;28;20028;-73
2022/12/23 12:50:17;;;;;;;18.17;11.00;;;;;;;8.49;100.00;100008.09;5276024;28;20349;-77
2022/12/23 12:52:50;;;;;;;19.50;11.33;;;;;;;8.54;100.00;99999.94;5267571;28;20036;-73
2022/12/23 12:55:41;;;;;;;24.97;12.47;;;;;;;8.56;100.00;99993.75;5270525;28;20567;-74
2022/12/23 12:58:20;;;;;;;21.17;12.00;;;;;;;8.43;100.00;99962.34;5268356;28;20091;-79
2022/12/23 13:01:23;;;;;;;17.93;10.83;;;;;;;8.48;100.00;99939.38;5271494;28;20047;-77
2022/12/23 13:04:15;;;;;;;21.77;11.97;;;;;;;8.47;100.00;99929.91;5273534;28;20080;-74
2022/12/23 13:06:59;;;;;;;23.33;11.50;;;;;;;8.35;100.00;99902.84;5273162;28;20041;-77
2022/12/23 13:09:49;;;;;;;16.52;10.52;;;;;;;8.41;100.00;99926.88;5265788;28;20037;-80
2022/12/23 13:12:27;;;;;;;18.73;11.00;;;;;;;8.38;100.00;99919.25;5275655;28;20391;-79
2022/12/23 13:15:15;;;;;;;18.93;10.87;;;;;;;8.40;100.00;99930.38;5262287;28;20131;-78
2022/12/23 13:18:05;;;;;;;16.87;10.97;;;;;;;8.40;100.00;99933.84;5275313;28;20453;-74
2022/12/23 13:20:44;;;;;;;28.50;11.17;;;;;;;8.23;100.00;99852.31;5264809;28;20029;-73
2022/12/23 13:23:25;;;;;;;29.03;12.30;;;;;;;8.32;100.00;99886.56;5268817;28;20020;-77
2022/12/23 13:26:04;;;;;;;18.33;11.13;;;;;;;8.21;100.00;99895.06;5265984;28;20032;-73
2022/12/23 13:28:50;;;;;;;20.27;10.67;;;;;;;8.12;100.00;99891.28;5270785;28;20029;-74
2022/12/23 13:31:36;;;;;;;19.90;12.47;;;;;;;8.27;100.00;99888.63;5274551;28;20020;-76
2022/12/23 13:34:19;;;;;;;19.63;11.80;;;;;;;8.41;100.00;99890.34;5264972;28;20055;-74
2022/12/23 13:36:59;;;;;;;19.30;12.23;;;;;;;8.22;100.00;99884.53;5270987;28;20475;-72
2022/12/23 13:39:52;;;;;;;17.87;11.03;;;;;;;8.22;100.00;99884.53;5271245;28;20459;-76
2022/12/23 13:42:31;;;;;;;21.33;11.67;;;;;;;8.33;100.00;99883.00;5269866;28;20059;-76
2022/12/23 13:45:05;;;;;;;21.73;11.20;;;;;;;8.22;100.00;99879.31;5275002;28;20034;-74
2022/12/23 13:47:55;;;;;;;16.83;11.33;;;;;;;8.23;100.00;99885.38;5256772;28;20108;-76
2022/12/23 13:50:36;;;;;;;21.30;10.90;;;;;;;8.24;100.00;99881.81;5267866;28;20776;-76
2022/12/23 13:53:37;;;;;;;20.50;11.27;;;;;;;8.26;100.00;99881.72;5260354;28;20398;-76
2022/12/23 13:56:21;;;;;;;18.23;10.67;;;;;;;8.22;100.00;99861.06;5267872;28;20095;-73
2022/12/23 13:58:52;;;;;;;15.20;10.47;;;;;;;8.17;100.00;99855.31;5260244;28;20025;-76
2022/12/23 14:01:34;;;;;;;13.97;9.17;;;;;;;8.16;100.00;99838.00;5254381;28;20116;-76
2022/12/23 14:04:32;;;;;;;14.00;9.73;;;;;;;8.18;100.00;99843.13;5268182;28;20048;-75
2022/12/23 14:07:26;;;;;;;13.87;8.97;;;;;;;8.15;100.00;99832.88;5263440;28;20032;-75
2022/12/23 14:10:08;;;;;;;11.87;8.47;;;;;;;8.16;100.00;99829.34;5273280;28;20372;-76
2022/12/23 14:12:41;;;;;;;9.27;7.67;;;;;;;8.17;100.00;99831.84;5274130;28;20115;-76
2022/12/23 14:15:46;;;;;;;13.37;8.30;;;;;;;8.20;100.00;99841.25;5274833;28;20036;-78
2022/12/23 14:18:36;;;;;;;12.65;8.57;;;;;;;8.21;100.00;99835.94;5275382;28;20024;-78
2022/12/23 14:21:26;;;;;;;10.27;7.57;;;;;;;8.22;100.00;99840.19;5274758;28;20040;-77
2022/12/23 14:24:32;;;;;;;11.77;8.50;;;;;;;8.20;100.00;99836.84;5273795;28;20072;-75
2022/12/23 14:27:19;;;;;;;12.00;8.80;;;;;;;8.25;100.00;99833.09;5252095;28;20045;-75
2022/12/23 14:30:14;;;;;;;11.23;8.60;;;;;;;8.23;100.00;99828.84;5264911;28;20185;-77
2022/12/23 14:32:49;;;;;;;19.00;10.63;;;;;;;8.35;100.00;99823.72;5271706;28;20058;-76
2022/12/23 14:35:32;;;;;;;10.18;8.90;;;;;;;8.34;100.00;99837.72;5261334;28;20131;-73
2022/12/23 14:38:03;;;;;;;18.77;10.67;;;;;;;8.29;100.00;99831.97;5256719;28;20515;-77
2022/12/23 14:40:38;;;;;;;13.33;10.30;;;;;;;8.48;100.00;99839.41;5259415;28;20033;-77
2022/12/23 14:43:21;;;;;;;16.60;11.30;;;;;;;8.50;100.00;99837.50;5258616;28;20036;-76
2022/12/23 14:45:53;;;;;;;15.63;11.10;;;;;;;8.57;100.00;99833.59;5272107;28;20058;-76
2022/12/23 14:48:46;;;;;;;16.63;11.07;;;;;;;8.65;100.00;99840.91;5260987;28;20025;-75
2022/12/23 14:51:23;;;;;;;13.93;11.20;;;;;;;8.70;100.00;99836.22;5258152;28;20035;-74
2022/12/23 14:53:57;;;;;;;17.20;11.13;;;;;;;8.71;100.00;99842.25;5266529;28;20040;-75
2022/12/23 14:56:53;;;;;;;12.23;10.88;;;;;;;8.77;100.00;99836.63;5263253;28;20032;-76
2022/12/23 14:59:41;;;;;;;12.03;10.63;;;;;;;8.83;100.00;99837.97;5266416;28;20039;-73
2022/12/23 15:02:35;;;;;;;15.17;12.00;;;;;;;8.89;100.00;99836.69;5272551;28;20040;-76
2022/12/23 15:05:07;;;;;;;13.50;12.10;;;;;;;8.92;100.00;99841.75;5261160;28;20029;-77
2022/12/23 15:07:45;;;;;;;14.47;12.97;;;;;;;8.88;100.00;99835.03;5268440;28;20089;-73
2022/12/23 15:10:25;;;;;;;17.10;14.63;;;;;;;8.98;100.00;99840.44;5273646;28;20107;-74
2022/12/23 15:13:05;;;;;;;15.97;13.27;;;;;;;9.01;100.00;99841.06;5274087;28;20024;-77
2022/12/23 15:15:52;;;;;;;15.10;13.60;;;;;;;9.03;100.00;99839.19;5274510;28;20051;-77
2022/12/23 15:18:24;;;;;;;16.97;15.20;;;;;;;9.06;100.00;99836.38;5273932;28;20021;-76
2022/12/23 15:21:08;;;;;;;16.33;14.63;;;;;;;9.11;100.00;99843.88;5273306;28;20028;-75
2022/12/23 15:23:48;;;;;;;19.52;15.35;;;;;;;9.18;100.00;99841.69;5274778;28;20101;-77
2022/12/23 15:26:23;;;;;;;18.77;16.73;;;;;;;9.24;100.00;99856.09;5273344;28;20031;-76
2022/12/23 15:28:56;;;;;;;19.30;17.30;;;;;;;9.24;100.00;99851.69;5273479;28;20024;-77
2022/12/23 15:31:31;;;;;;;19.87;17.77;;;;;;;9.29;100.00;99848.75;5274615;28;20017;-78
2022/12/23 15:34:09;;;;;;;20.13;17.90;;;;;;;9.32;100.00;99843.31;5272760;28;20491;-78
2022/12/23 15:36:42;;;;;;;19.40;17.50;;;;;;;9.36;100.00;99855.22;5271089;28;20030;-77
2022/12/23 15:39:23;;;;;;;21.57;19.37;;;;;;;9.41;100.00;99862.72;5272788;28;20031;-77
2022/12/23 15:41:55;;;;;;;21.50;19.20;;;;;;;9.44;100.00;99846.84;5270740;28;20437;-77
2022/12/23 15:44:37;;;;;;;21.63;19.43;;;;;;;9.42;100.00;99854.81;5275412;28;20040;-77
2022/12/23 15:47:20;;;;;;;22.63;20.43;;;;;;;9.54;100.00;99866.16;5275513;28;20033;-76
2022/12/23 15:49:52;;;;;;;21.57;19.37;;;;;;;9.57;100.00;99865.09;5284538;28;20028;-77
2022/12/23 15:52:23;;;;;;;22.30;20.00;;;;;;;9.53;100.00;99856.63;5270318;28;20047;-72
2022/12/23 15:55:00;;;;;;;19.93;17.93;;;;;;;9.68;100.00;99870.41;5277536;28;20037;-76
2022/12/23 15:57:32;;;;;;;20.30;18.07;;;;;;;9.74;100.00;99868.28;5265911;28;20479;-75
2022/12/23 16:00:04;;;;;;;18.80;16.80;;;;;;;9.73;100.00;99874.44;5270916;28;20029;-76
2022/12/23 16:02:36;;;;;;;22.60;16.90;;;;;;;9.83;100.00;99882.50;5273887;28;20051;-73
2022/12/23 16:05:07;;;;;;;23.43;16.80;;;;;;;9.88;100.00;99890.84;5271932;28;20427;-77
2022/12/23 16:07:40;;;;;;;18.10;16.17;;;;;;;9.93;100.00;99894.75;5278414;28;20067;-76
2022/12/23 16:10:14;;;;;;;20.17;17.30;;;;;;;9.95;100.00;99907.72;5277805;28;20025;-78
2022/12/23 16:12:49;;;;;;;18.65;16.65;;;;;;;9.94;100.00;99900.84;5261647;28;20418;-73
2022/12/23 16:15:27;;;;;;;20.60;14.87;;;;;;;9.99;100.00;99918.81;5273014;28;20046;-76
2022/12/23 16:18:20;;;;;;;15.90;12.23;;;;;;;10.07;100.00;99916.47;5263602;28;20037;-77
2022/12/23 16:20:57;;;;;;;21.03;11.30;;;;;;;10.11;100.00;99923.16;5270116;28;20025;-77
2022/12/23 16:23:33;;;;;;;18.17;10.37;;;;;;;10.09;100.00;99935.50;5280676;28;20028;-75
2022/12/23 16:26:04;;;;;;;14.83;8.93;;;;;;;10.14;100.00;99933.38;5277887;28;20649;-72
2022/12/23 16:28:45;;;;;;;17.80;10.23;;;;;;;10.14;100.00;99933.38;5279737;28;20047;-71
2022/12/23 16:31:18;;;;;;;18.00;10.03;;;;;;;10.17;100.00;99943.63;5293549;28;20063;-72
2022/12/23 16:33:58;;;;;;;20.33;11.37;;;;;;;10.14;100.00;99959.56;5258434;28;20094;-73
2022/12/23 16:36:29;;;;;;;20.93;11.63;;;;;;;10.15;100.00;99947.31;5273761;28;20020;-72
2022/12/23 16:39:20;;;;;;;20.47;11.63;;;;;;;10.19;100.00;99961.00;5270947;28;20027;-73
2022/12/23 16:41:51;;;;;;;20.13;10.83;;;;;;;10.14;100.00;99951.69;5275768;28;20387;-70
2022/12/23 16:44:22;;;;;;;23.93;11.77;;;;;;;10.22;100.00;99966.00;5273035;28;20033;-72
2022/12/23 16:46:54;;;;;;;20.33;11.80;;;;;;;10.18;100.00;99957.56;5273401;28;20059;-72
2022/12/23 16:49:27;;;;;;;21.43;11.70;;;;;;;10.24;100.00;99970.22;5276505;28;20025;-72
2022/12/23 16:51:58;;;;;;;24.10;12.50;;;;;;;10.18;100.00;99970.63;5263166;28;20507;-72
2022/12/23 16:54:29;;;;;;;22.57;11.60;;;;;;;10.21;100.00;99974.81;5274115;28;20391;-72
2022/12/23 16:57:00;;;;;;;33.07;13.60;;;;;;;10.24;100.00;99987.69;5265034;28;20032;-72
2022/12/23 16:59:32;;;;;;;39.97;14.57;;;;;;;10.23;100.00;99980.75;5264959;28;20035;-72
2022/12/23 17:02:03;;;;;;;27.47;12.40;;;;;;;10.26;100.00;99984.00;5269926;28;20032;-80
2022/12/23 17:04:34;;;;;;;31.13;13.60;;;;;;;10.23;100.00;99980.75;5262947;28;20475;-78
2022/12/23 17:07:10;;;;;;;33.73;13.77;;;;;;;10.30;100.00;99987.22;5266231;28;20028;-75
2022/12/23 17:09:42;;;;;;;33.90;14.80;;;;;;;10.28;100.00;99987.34;5276762;28;20033;-73
2022/12/23 17:12:13;;;;;;;39.23;16.67;;;;;;;10.25;100.00;100005.88;5272150;28;20480;-75
2022/12/23 17:14:44;;;;;;;35.07;14.70;;;;;;;10.33;100.00;100014.97;5261927;28;20041;-72
2022/12/23 17:17:15;;;;;;;39.00;13.53;;;;;;;10.31;100.00;100011.63;5270016;28;20024;-77
2022/12/23 17:19:47;;;;;;;34.70;14.73;;;;;;;10.27;100.00;100011.84;5266877;28;20028;-78
2022/12/23 17:22:18;;;;;;;44.93;14.17;;;;;;;10.31;100.00;100014.25;5253594;28;20166;-77
2022/12/23 17:24:50;;;;;;;36.30;13.00;;;;;;;10.31;100.00;100016.84;5269263;28;20052;-75
2022/12/23 17:27:21;;;;;;;36.50;12.80;;;;;;;10.16;100.00;99994.31;5257230;28;20024;-77
2022/12/23 17:29:52;;;;;;;36.50;12.10;;;;;;;10.25;100.00;100023.34;5254987;28;20029;-77
2022/12/23 17:32:24;;;;;;;40.63;12.43;;;;;;;10.21;100.00;100011.47;5261034;28;20040;-78
2022/12/23 17:34:55;;;;;;;49.30;11.10;;;;;;;10.11;100.00;100000.78;5260601;28;20383;-78
2022/12/23 17:37:27;;;;;;;48.83;11.50;;;;;;;10.21;100.00;100035.00;5255404;28;20104;-77
2022/12/23 17:39:58;;;;;;;45.57;10.13;;;;;;;10.18;100.00;100028.19;5260110;28;20031;-78
2022/12/23 17:42:30;;;;;;;45.53;9.73;;;;;;;10.13;100.00;100020.69;5259750;28;20036;-82
2022/12/23 17:45:02;;;;;;;43.97;9.57;;;;;;;10.14;100.00;100032.00;5255277;28;20029;-77
2022/12/23 17:47:33;;;;;;;42.13;10.30;;;;;;;10.13;100.00;100040.78;5265156;28;20040;-76
2022/12/23 17:50:05;;;;;;;44.93;11.53;;;;;;;10.10;100.00;100046.22;5255156;28;20047;-75
2022/12/23 17:52:36;;;;;;;41.47;9.10;;;;;;;10.08;100.00;100046.34;5275555;28;20386;-73
2022/12/23 17:55:21;;;;;;;39.87;8.67;;;;;;;10.12;100.00;100050.41;5274701;28;20036;-73
2022/12/23 17:57:52;;;;;;;45.15;10.95;;;;;;;10.10;100.00;100057.53;5264127;28;20087;-77
2022/12/23 18:00:24;;;;;;;42.70;9.77;;;;;;;9.99;100.00;100053.06;5269820;28;20021;-73
2022/12/23 18:02:55;;;;;;;42.07;9.37;;;;;;;10.04;100.00;100061.41;5255316;28;20032;-82
2022/12/23 18:05:29;;;;;;;37.70;9.10;;;;;;;10.01;100.00;100060.78;5264863;28;20021;-81
2022/12/23 18:08:02;;;;;;;40.90;9.50;;;;;;;10.04;100.00;100068.41;5270594;28;20024;-79
2022/12/23 18:10:37;;;;;;;39.03;10.30;;;;;;;10.03;100.00;100061.53;5266547;28;20023;-82
2022/12/23 18:13:15;;;;;;;43.83;10.40;;;;;;;10.07;100.00;100068.19;5258090;28;20090;-80
2022/12/23 18:15:47;;;;;;;44.70;10.83;;;;;;;10.02;100.00;100065.91;5266978;28;20135;-87
2022/12/23 18:18:21;;;;;;;47.83;11.53;;;;;;;10.05;100.00;100077.97;5267939;28;20522;-80
2022/12/23 18:20:56;;;;;;;46.13;9.30;;;;;;;10.06;100.00;100071.78;5267052;28;20082;-73
2022/12/23 18:23:30;;;;;;;45.80;9.88;;;;;;;10.05;100.00;100078.78;5267917;28;20016;-79
2022/12/23 18:26:01;;;;;;;46.58;9.30;;;;;;;10.08;100.00;100082.97;5265161;28;20035;-80
2022/12/23 18:28:32;;;;;;;48.93;11.27;;;;;;;10.03;100.00;100077.22;5259725;28;20033;-79
2022/12/23 18:31:03;;;;;;;39.67;10.57;;;;;;;10.06;100.00;100087.47;5267626;28;20055;-74
2022/12/23 18:33:35;;;;;;;51.13;10.27;;;;;;;10.02;100.00;100089.47;5268141;28;20041;-77
2022/12/23 18:36:17;;;;;;;42.23;11.67;;;;;;;9.97;100.00;100082.88;5268385;28;20024;-74
2022/12/23 18:38:48;;;;;;;33.23;10.00;;;;;;;10.06;100.00;100108.41;5269432;28;20028;-72
2022/12/23 18:41:21;;;;;;;41.40;10.20;;;;;;;10.06;100.00;100097.94;5270761;28;20048;-77
2022/12/23 18:43:53;;;;;;;40.97;10.03;;;;;;;9.98;100.00;100093.25;5268750;28;20071;-73
2022/12/23 18:46:24;;;;;;;39.80;8.90;;;;;;;10.07;100.00;100111.88;5262661;28;20421;-77
2022/12/23 18:48:55;;;;;;;48.40;11.23;;;;;;;10.05;100.00;100111.97;5266017;28;20021;-73
2022/12/23 18:51:26;;;;;;;42.03;9.80;;;;;;;10.07;100.00;100110.06;5261955;28;20031;-75
2022/12/23 18:53:58;;;;;;;41.67;9.77;;;;;;;10.00;100.00;100114.06;5261792;28;20036;-73
2022/12/23 18:56:29;;;;;;;37.77;9.83;;;;;;;10.04;100.00;100115.50;5267209;28;20037;-73
2022/12/23 18:59:00;;;;;;;40.30;10.53;;;;;;;10.02;100.00;100114.78;5265344;28;20102;-74
2022/12/23 19:01:31;;;;;;;43.43;9.20;;;;;;;10.02;100.00;100114.78;5269854;28;20025;-76
2022/12/23 19:04:03;;;;;;;38.87;8.57;;;;;;;10.00;100.00;100120.13;5268390;28;20032;-75
2022/12/23 19:06:34;;;;;;;39.37;9.47;;;;;;;9.99;100.00;100113.22;5270058;28;20032;-74
2022/12/23 19:09:06;;;;;;;38.47;8.90;;;;;;;10.04;100.00;100137.28;5268379;28;20052;-75
2022/12/23 19:11:37;;;;;;;41.83;9.47;;;;;;;10.03;100.00;100119.94;5266093;28;20108;-74
2022/12/23 19:14:10;;;;;;;40.50;8.50;;;;;;;10.07;100.00;100124.94;5271264;28;20136;-74
2022/12/23 19:16:42;;;;;;;35.53;10.00;;;;;;;10.00;100.00;100122.72;5268175;28;20032;-73
2022/12/23 19:19:13;;;;;;;38.73;8.73;;;;;;;9.96;100.00;100104.75;5268027;28;20035;-74
2022/12/23 19:21:44;;;;;;;44.43;9.93;;;;;;;10.08;100.00;100117.00;5268756;28;20036;-77
2022/12/23 19:24:16;;;;;;;40.27;9.40;;;;;;;10.08;100.00;100127.44;5269064;28;20029;-73
2022/12/23 19:26:48;;;;;;;39.30;8.57;;;;;;;10.07;100.00;100130.19;5256811;28;20025;-75
2022/12/23 19:29:19;;;;;;;44.20;10.13;;;;;;;10.03;100.00;100140.00;5272053;28;20107;-74
2022/12/23 19:31:50;;;;;;;33.43;9.23;;;;;;;10.03;100.00;100134.78;5266767;28;20029;-74
2022/12/23 19:34:21;;;;;;;35.10;8.73;;;;;;;10.03;100.00;100142.63;5262078;28;20033;-72
2022/12/23 19:36:53;;;;;;;38.50;9.37;;;;;;;10.04;100.00;100157.38;5255786;28;20028;-73
2022/12/23 19:39:25;;;;;;;35.93;9.20;;;;;;;10.00;100.00;100150.69;5260976;28;20074;-76
2022/12/23 19:41:57;;;;;;;41.53;9.53;;;;;;;9.98;100.00;100156.03;5272786;28;20020;-74
2022/12/23 19:44:28;;;;;;;36.97;10.10;;;;;;;9.93;100.00;100153.72;5257332;28;20032;-75
2022/12/23 19:47:00;;;;;;;34.20;9.30;;;;;;;9.99;100.00;100165.53;5267102;28;20086;-73
2022/12/23 19:49:33;;;;;;;35.43;8.97;;;;;;;9.94;100.00;100167.63;5264817;28;20043;-74
2022/12/23 19:52:04;;;;;;;42.47;9.83;;;;;;;9.95;100.00;100169.31;5268750;28;20090;-75
2022/12/23 19:54:35;;;;;;;42.33;9.57;;;;;;;9.86;100.00;100164.72;5265199;28;20040;-74
2022/12/23 19:57:07;;;;;;;40.97;9.70;;;;;;;9.91;100.00;100175.69;5260055;28;20024;-74
2022/12/23 19:59:38;;;;;;;35.03;8.83;;;;;;;9.97;100.00;100192.72;5264595;28;20107;-73
2022/12/23 20:02:18;;;;;;;29.87;8.33;;;;;;;9.91;100.00;100189.59;5259086;28;20036;-75
2022/12/23 20:04:50;;;;;;;36.30;10.93;;;;;;;9.95;100.00;100199.88;5263776;28;20032;-73
2022/12/23 20:07:21;;;;;;;34.47;10.23;;;;;;;9.95;100.00;100205.09;5269406;28;20024;-73
2022/12/23 20:09:52;;;;;;;40.47;10.73;;;;;;;9.88;100.00;100207.31;5264626;28;20484;-74
2022/12/23 20:12:25;;;;;;;38.93;9.23;;;;;;;9.91;100.00;100226.22;5266140;28;20118;-74
2022/12/23 20:14:56;;;;;;;39.43;10.47;;;;;;;9.88;100.00;100217.75;5270408;28;20076;-73
2022/12/23 20:17:28;;;;;;;38.43;10.73;;;;;;;9.78;100.00;100207.06;5267976;28;20527;-73
2022/12/23 20:19:59;;;;;;;38.10;9.77;;;;;;;9.87;100.00;100234.38;5272951;28;20037;-74
2022/12/23 20:22:30;;;;;;;32.33;9.00;;;;;;;9.84;100.00;100231.97;5271416;28;20039;-75
2022/12/23 20:25:02;;;;;;;40.00;10.87;;;;;;;9.82;100.00;100239.06;5270461;28;20029;-73
2022/12/23 20:27:35;;;;;;;36.73;10.43;;;;;;;9.80;100.00;100250.50;5269368;28;20028;-82
2022/12/23 20:30:07;;;;;;;51.10;11.30;;;;;;;9.85;100.00;100257.19;5266510;28;20027;-75
2022/12/23 20:32:38;;;;;;;40.70;10.63;;;;;;;9.73;100.00;100258.81;5259579;28;20112;-76
2022/12/23 20:35:10;;;;;;;34.40;8.67;;;;;;;9.72;100.00;100244.91;5270651;28;20175;-84
2022/12/23 20:37:41;;;;;;;38.83;10.60;;;;;;;9.78;100.00;100260.22;5263447;28;20688;-74
2022/12/23 20:40:14;;;;;;;34.57;8.53;;;;;;;9.88;100.00;100277.91;5269034;28;20051;-72
2022/12/23 20:42:45;;;;;;;36.03;8.17;;;;;;;9.84;100.00;100281.66;5267941;28;20422;-72
2022/12/23 20:45:16;;;;;;;43.93;10.50;;;;;;;9.85;100.00;100281.56;5269446;28;20044;-72
2022/12/23 20:47:51;;;;;;;31.13;8.60;;;;;;;9.81;100.00;100290.53;5282445;28;20097;-72
2022/12/23 20:50:22;;;;;;;45.20;8.55;;;;;;;9.80;100.00;100313.25;5267209;28;20028;-74
2022/12/23 20:52:53;;;;;;;39.43;7.83;;;;;;;9.85;100.00;100309.47;5270609;28;20025;-74
2022/12/23 20:55:25;;;;;;;32.03;7.10;;;;;;;9.85;100.00;100320.78;5265641;28;20025;-74
2022/12/23 20:57:56;;;;;;;31.03;7.63;;;;;;;9.77;100.00;100302.16;5270427;28;20489;-74
2022/12/23 21:00:27;;;;;;;34.90;7.27;;;;;;;9.83;100.00;100330.50;5272126;28;20020;-74
2022/12/23 21:02:58;;;;;;;36.97;8.90;;;;;;;9.79;100.00;100318.59;5262084;28;20025;-74
2022/12/23 21:05:30;;;;;;;26.63;6.60;;;;;;;9.79;100.00;100321.22;5274703;28;20037;-78
2022/12/23 21:08:01;;;;;;;34.27;6.63;;;;;;;9.77;100.00;100338.78;5274672;28;20033;-73
2022/12/23 21:10:34;;;;;;;25.67;6.33;;;;;;;9.80;100.00;100326.34;5267987;28;20071;-73
2022/12/23 21:13:05;;;;;;;32.63;6.93;;;;;;;9.65;100.00;100319.50;5264335;28;20457;-75
2022/12/23 21:15:37;;;;;;;33.40;7.13;;;;;;;9.75;100.00;100340.63;5266556;28;20079;-74
2022/12/23 21:18:08;;;;;;;24.27;6.47;;;;;;;9.71;100.00;100334.75;5272384;28;20123;-75
2022/12/23 21:20:39;;;;;;;40.83;8.03;;;;;;;9.75;100.00;100345.88;5256826;28;20029;-76
2022/12/23 21:23:10;;;;;;;30.47;7.23;;;;;;;9.77;100.00;100354.47;5258937;28;20016;-74
2022/12/23 21:25:42;;;;;;;29.50;7.50;;;;;;;9.76;100.00;100358.84;5264664;28;20037;-80
2022/12/23 21:28:13;;;;;;;26.97;6.40;;;;;;;9.62;100.00;100336.19;5269710;28;20021;-77
2022/12/23 21:30:44;;;;;;;37.63;7.77;;;;;;;9.65;100.00;100345.63;5269166;28;20031;-76
2022/12/23 21:33:15;;;;;;;27.60;6.27;;;;;;;9.68;100.00;100353.28;5257448;28;20041;-73
2022/12/23 21:35:47;;;;;;;27.97;6.10;;;;;;;9.73;100.00;100363.44;5264562;28;20029;-72
2022/12/23 21:38:18;;;;;;;30.50;7.27;;;;;;;9.77;100.00;100364.91;5262563;28;20036;-75
2022/12/23 21:40:49;;;;;;;32.53;7.83;;;;;;;9.82;100.00;100377.69;5256743;28;20036;-74
2022/12/23 21:43:20;;;;;;;27.23;8.03;;;;;;;9.78;100.00;100377.06;5256338;28;20476;-75
2022/12/23 21:46:01;;;;;;;26.50;6.53;;;;;;;9.73;100.00;100373.88;5271626;28;20357;-80
2022/12/23 21:48:34;;;;;;;34.60;8.03;;;;;;;9.75;100.00;100385.09;5270472;28;20106;-78
2022/12/23 21:51:14;;;;;;;38.03;8.97;;;;;;;9.80;100.00;100401.34;5270960;28;20411;-71
2022/12/23 21:53:47;;;;;;;32.13;8.43;;;;;;;9.77;100.00;100406.75;5265914;28;20488;-70
2022/12/23 21:56:23;;;;;;;33.13;9.77;;;;;;;9.77;100.00;100401.53;5262963;28;20071;-72
2022/12/23 21:58:59;;;;;;;28.27;7.03;;;;;;;9.77;100.00;100407.59;5268248;28;20052;-70
2022/12/23 22:01:31;;;;;;;35.10;7.60;;;;;;;9.74;100.00;100401.75;5272684;28;20081;-74
2022/12/23 22:04:02;;;;;;;34.67;7.97;;;;;;;9.75;100.00;100413.88;5266809;28;20028;-74
2022/12/23 22:06:36;;;;;;;27.47;7.10;;;;;;;9.72;100.00;100411.44;5267194;28;20043;-76
